sensor_id;sensor_type;location;lat;lon;timestamp;noise_LAeq;noise_LA_min;noise_LA_max;noise_LA01;noise_LA95
50333;Laerm;36239;48.132;-1.210;2023-02-18T00:01:41;37.77;33.90;43.54;;
50333;Laerm;36239;48.132;-1.210;2023-02-18T00:04:07;37.99;33.90;50.96;;
50333;Laerm;36239;48.132;-1.210;2023-02-18T00:06:34;37.56;32.93;42.82;;
50333;Laerm;36239;48.132;-1.210;2023-02-18T00:09:01;41.79;32.93;62.78;;
50333;Laerm;36239;48.132;-1.210;2023-02-18T00:11:29;37.88;32.93;42.16;;
50333;Laerm;36239;48.132;-1.210;2023-02-18T00:13:57;37.71;32.93;42.47;;
50333;Laerm;36239;48.132;-1.210;2023-02-18T00:16:23;39.40;32.93;66.59;;
50333;Laerm;36239;48.132;-1.210;2023-02-18T00:18:50;39.41;32.93;63.38;;
50333;Laerm;36239;48.132;-1.210;2023-02-18T00:21:19;37.89;32.93;55.41;;
50333;Laerm;36239;48.132;-1.210;2023-02-18T00:23:45;37.55;32.93;46.48;;
50333;Laerm;36239;48.132;-1.210;2023-02-18T00:26:12;37.68;33.44;41.75;;
50333;Laerm;36239;48.132;-1.210;2023-02-18T00:28:39;37.58;33.44;45.17;;
50333;Laerm;36239;48.132;-1.210;2023-02-18T00:31:12;37.40;32.93;43.49;;
50333;Laerm;36239;48.132;-1.210;2023-02-18T00:33:39;37.53;33.44;42.35;;
50333;Laerm;36239;48.132;-1.210;2023-02-18T00:36:07;37.69;32.93;41.61;;
50333;Laerm;36239;48.132;-1.210;2023-02-18T00:38:33;37.75;32.93;43.54;;
50333;Laerm;36239;48.132;-1.210;2023-02-18T00:41:00;37.69;31.33;55.02;;
50333;Laerm;36239;48.132;-1.210;2023-02-18T00:43:26;37.50;32.93;42.47;;
50333;Laerm;36239;48.132;-1.210;2023-02-18T00:45:52;37.57;33.44;43.44;;
50333;Laerm;36239;48.132;-1.210;2023-02-18T00:48:18;37.83;32.93;42.71;;
50333;Laerm;36239;48.132;-1.210;2023-02-18T00:50:44;37.58;33.44;46.23;;
50333;Laerm;36239;48.132;-1.210;2023-02-18T00:53:10;37.93;33.44;43.63;;
50333;Laerm;36239;48.132;-1.210;2023-02-18T00:55:39;37.61;33.44;43.34;;
50333;Laerm;36239;48.132;-1.210;2023-02-18T00:58:05;37.63;32.35;43.24;;
50333;Laerm;36239;48.132;-1.210;2023-02-18T01:00:31;37.44;33.44;42.93;;
50333;Laerm;36239;48.132;-1.210;2023-02-18T01:02:57;37.58;32.93;43.04;;
50333;Laerm;36239;48.132;-1.210;2023-02-18T01:05:23;37.39;32.93;42.47;;
50333;Laerm;36239;48.132;-1.210;2023-02-18T01:07:49;37.45;32.93;41.89;;
50333;Laerm;36239;48.132;-1.210;2023-02-18T01:10:15;37.42;32.93;42.65;;
50333;Laerm;36239;48.132;-1.210;2023-02-18T01:12:42;37.61;32.35;49.70;;
50333;Laerm;36239;48.132;-1.210;2023-02-18T01:15:08;37.65;32.35;43.29;;
50333;Laerm;36239;48.132;-1.210;2023-02-18T01:17:34;37.61;33.44;42.88;;
50333;Laerm;36239;48.132;-1.210;2023-02-18T01:20:00;37.33;31.68;44.58;;
50333;Laerm;36239;48.132;-1.210;2023-02-18T01:22:26;37.46;32.35;45.17;;
50333;Laerm;36239;48.132;-1.210;2023-02-18T01:24:52;37.62;32.35;51.86;;
50333;Laerm;36239;48.132;-1.210;2023-02-18T01:27:18;37.58;32.35;41.96;;
50333;Laerm;36239;48.132;-1.210;2023-02-18T01:29:44;37.34;31.68;46.84;;
50333;Laerm;36239;48.132;-1.210;2023-02-18T01:32:10;37.75;32.93;43.81;;
50333;Laerm;36239;48.132;-1.210;2023-02-18T01:34:36;38.08;33.44;42.98;;
50333;Laerm;36239;48.132;-1.210;2023-02-18T01:37:02;37.98;33.44;43.29;;
50333;Laerm;36239;48.132;-1.210;2023-02-18T01:39:28;37.48;32.35;41.14;;
50333;Laerm;36239;48.132;-1.210;2023-02-18T01:41:54;38.67;32.93;64.54;;
50333;Laerm;36239;48.132;-1.210;2023-02-18T01:44:23;37.57;32.35;43.49;;
50333;Laerm;36239;48.132;-1.210;2023-02-18T01:46:50;37.31;32.93;41.14;;
50333;Laerm;36239;48.132;-1.210;2023-02-18T01:49:18;37.30;31.68;43.68;;
50333;Laerm;36239;48.132;-1.210;2023-02-18T01:51:46;37.29;32.35;43.39;;
50333;Laerm;36239;48.132;-1.210;2023-02-18T01:54:14;37.39;32.35;43.39;;
50333;Laerm;36239;48.132;-1.210;2023-02-18T01:56:44;37.33;32.35;43.63;;
50333;Laerm;36239;48.132;-1.210;2023-02-18T01:59:13;37.35;32.93;42.59;;
50333;Laerm;36239;48.132;-1.210;2023-02-18T02:01:41;37.45;33.44;42.35;;
50333;Laerm;36239;48.132;-1.210;2023-02-18T02:04:08;38.55;33.44;65.33;;
50333;Laerm;36239;48.132;-1.210;2023-02-18T02:06:34;37.85;32.93;58.59;;
50333;Laerm;36239;48.132;-1.210;2023-02-18T02:09:01;37.44;33.44;41.75;;
50333;Laerm;36239;48.132;-1.210;2023-02-18T02:11:40;37.25;31.68;43.86;;
50333;Laerm;36239;48.132;-1.210;2023-02-18T02:24:33;37.32;32.93;42.71;;
50333;Laerm;36239;48.132;-1.210;2023-02-18T02:37:49;37.78;32.35;49.50;;
50333;Laerm;36239;48.132;-1.210;2023-02-18T02:40:31;37.77;32.35;45.27;;
50333;Laerm;36239;48.132;-1.210;2023-02-18T02:48:36;38.14;32.35;50.08;;
50333;Laerm;36239;48.132;-1.210;2023-02-18T02:51:06;37.86;32.93;49.88;;
50333;Laerm;36239;48.132;-1.210;2023-02-18T02:53:34;38.34;32.93;50.11;;
50333;Laerm;36239;48.132;-1.210;2023-02-18T02:56:01;38.31;33.44;50.36;;
50333;Laerm;36239;48.132;-1.210;2023-02-18T02:58:27;38.01;29.92;47.46;;
50333;Laerm;36239;48.132;-1.210;2023-02-18T03:01:13;37.49;31.68;47.02;;
50333;Laerm;36239;48.132;-1.210;2023-02-18T03:06:35;37.63;32.58;48.42;;
50333;Laerm;36239;48.132;-1.210;2023-02-18T03:09:09;37.80;32.93;52.36;;
50333;Laerm;36239;48.132;-1.210;2023-02-18T03:11:43;38.11;32.35;51.13;;
50333;Laerm;36239;48.132;-1.210;2023-02-18T03:16:44;37.94;32.58;48.10;;
50333;Laerm;36239;48.132;-1.210;2023-02-18T03:21:40;38.22;32.35;50.64;;
50333;Laerm;36239;48.132;-1.210;2023-02-18T03:24:13;37.84;31.68;46.69;;
50333;Laerm;36239;48.132;-1.210;2023-02-18T03:26:46;38.09;32.93;51.82;;
50333;Laerm;36239;48.132;-1.210;2023-02-18T03:29:13;38.24;33.09;50.77;;
50333;Laerm;36239;48.132;-1.210;2023-02-18T03:31:42;38.39;32.93;51.47;;
50333;Laerm;36239;48.132;-1.210;2023-02-18T03:34:10;38.84;32.93;54.66;;
50333;Laerm;36239;48.132;-1.210;2023-02-18T03:36:37;39.35;33.90;53.64;;
50333;Laerm;36239;48.132;-1.210;2023-02-18T03:39:05;49.16;32.93;67.19;;
50333;Laerm;36239;48.132;-1.210;2023-02-18T03:41:32;38.56;32.93;50.91;;
50333;Laerm;36239;48.132;-1.210;2023-02-18T03:44:00;39.11;33.44;60.32;;
50333;Laerm;36239;48.132;-1.210;2023-02-18T03:46:29;38.76;32.93;55.23;;
50333;Laerm;36239;48.132;-1.210;2023-02-18T03:48:56;38.74;32.93;54.96;;
50333;Laerm;36239;48.132;-1.210;2023-02-18T03:51:22;37.80;33.44;53.05;;
50333;Laerm;36239;48.132;-1.210;2023-02-18T03:53:48;37.56;31.68;49.80;;
50333;Laerm;36239;48.132;-1.210;2023-02-18T03:56:14;38.22;32.93;48.55;;
50333;Laerm;36239;48.132;-1.210;2023-02-18T03:58:40;38.23;32.35;51.50;;
50333;Laerm;36239;48.132;-1.210;2023-02-18T04:01:06;38.57;32.93;50.59;;
50333;Laerm;36239;48.132;-1.210;2023-02-18T04:03:32;38.60;33.44;51.14;;
50333;Laerm;36239;48.132;-1.210;2023-02-18T04:05:58;38.32;33.44;53.94;;
50333;Laerm;36239;48.132;-1.210;2023-02-18T04:08:24;37.96;32.35;51.09;;
50333;Laerm;36239;48.132;-1.210;2023-02-18T04:10:50;38.51;30.89;50.38;;
50333;Laerm;36239;48.132;-1.210;2023-02-18T04:13:16;39.17;33.44;50.67;;
50333;Laerm;36239;48.132;-1.210;2023-02-18T04:15:43;39.29;32.93;54.15;;
50333;Laerm;36239;48.132;-1.210;2023-02-18T04:18:09;38.71;32.93;54.17;;
50333;Laerm;36239;48.132;-1.210;2023-02-18T04:20:35;38.72;33.44;50.48;;
50333;Laerm;36239;48.132;-1.210;2023-02-18T04:23:02;38.61;33.44;51.59;;
50333;Laerm;36239;48.132;-1.210;2023-02-18T04:25:28;38.32;32.93;54.29;;
50333;Laerm;36239;48.132;-1.210;2023-02-18T04:27:54;38.62;32.93;51.70;;
50333;Laerm;36239;48.132;-1.210;2023-02-18T04:30:20;38.17;32.93;49.80;;
50333;Laerm;36239;48.132;-1.210;2023-02-18T04:32:47;38.61;32.93;50.37;;
50333;Laerm;36239;48.132;-1.210;2023-02-18T04:35:13;38.35;32.93;48.20;;
50333;Laerm;36239;48.132;-1.210;2023-02-18T04:37:39;38.44;33.44;51.20;;
50333;Laerm;36239;48.132;-1.210;2023-02-18T04:40:05;38.65;33.90;49.28;;
50333;Laerm;36239;48.132;-1.210;2023-02-18T04:42:31;38.79;34.31;49.16;;
50333;Laerm;36239;48.132;-1.210;2023-02-18T04:44:57;38.94;33.90;55.83;;
50333;Laerm;36239;48.132;-1.210;2023-02-18T04:47:23;38.48;33.90;48.60;;
50333;Laerm;36239;48.132;-1.210;2023-02-18T04:49:49;38.92;33.09;49.11;;
50333;Laerm;36239;48.132;-1.210;2023-02-18T04:52:15;39.52;33.44;48.85;;
50333;Laerm;36239;48.132;-1.210;2023-02-18T04:54:41;39.37;33.90;50.85;;
50333;Laerm;36239;48.132;-1.210;2023-02-18T04:57:07;40.70;33.55;54.34;;
50333;Laerm;36239;48.132;-1.210;2023-02-18T04:59:33;40.78;32.93;56.80;;
50333;Laerm;36239;48.132;-1.210;2023-02-18T05:01:59;41.16;34.69;52.88;;
50333;Laerm;36239;48.132;-1.210;2023-02-18T05:04:25;40.70;33.90;55.01;;
50333;Laerm;36239;48.132;-1.210;2023-02-18T05:06:51;41.35;33.90;56.96;;
50333;Laerm;36239;48.132;-1.210;2023-02-18T05:09:17;40.86;34.69;52.70;;
50333;Laerm;36239;48.132;-1.210;2023-02-18T05:11:43;40.26;33.90;57.27;;
50333;Laerm;36239;48.132;-1.210;2023-02-18T05:14:09;43.21;33.90;70.48;;
50333;Laerm;36239;48.132;-1.210;2023-02-18T05:16:35;41.21;33.90;60.35;;
50333;Laerm;36239;48.132;-1.210;2023-02-18T05:19:02;40.45;33.55;53.29;;
50333;Laerm;36239;48.132;-1.210;2023-02-18T05:21:28;41.69;33.90;56.49;;
50333;Laerm;36239;48.132;-1.210;2023-02-18T05:23:54;42.82;33.90;54.77;;
50333;Laerm;36239;48.132;-1.210;2023-02-18T05:26:20;47.91;32.93;66.26;;
50333;Laerm;36239;48.132;-1.210;2023-02-18T05:28:46;40.30;32.93;53.03;;
50333;Laerm;36239;48.132;-1.210;2023-02-18T05:31:12;40.30;34.31;53.77;;
50333;Laerm;36239;48.132;-1.210;2023-02-18T05:33:38;40.22;33.44;52.18;;
50333;Laerm;36239;48.132;-1.210;2023-02-18T05:36:04;39.32;33.90;52.72;;
50333;Laerm;36239;48.132;-1.210;2023-02-18T05:38:30;40.60;34.31;62.88;;
50333;Laerm;36239;48.132;-1.210;2023-02-18T05:40:56;39.44;33.90;54.43;;
50333;Laerm;36239;48.132;-1.210;2023-02-18T05:43:22;39.58;32.93;53.04;;
50333;Laerm;36239;48.132;-1.210;2023-02-18T05:45:48;46.10;33.90;60.37;;
50333;Laerm;36239;48.132;-1.210;2023-02-18T05:48:14;49.02;33.44;68.10;;
50333;Laerm;36239;48.132;-1.210;2023-02-18T05:50:40;44.05;32.93;66.72;;
50333;Laerm;36239;48.132;-1.210;2023-02-18T05:53:06;44.36;33.44;66.62;;
50333;Laerm;36239;48.132;-1.210;2023-02-18T05:55:32;38.67;32.35;49.59;;
50333;Laerm;36239;48.132;-1.210;2023-02-18T05:58:04;40.93;33.90;55.04;;
50333;Laerm;36239;48.132;-1.210;2023-02-18T06:00:30;40.31;33.90;52.67;;
50333;Laerm;36239;48.132;-1.210;2023-02-18T06:02:57;41.07;34.31;51.62;;
50333;Laerm;36239;48.132;-1.210;2023-02-18T06:05:23;50.84;35.04;65.35;;
50333;Laerm;36239;48.132;-1.210;2023-02-18T06:07:49;50.83;34.69;64.93;;
50333;Laerm;36239;48.132;-1.210;2023-02-18T06:10:15;50.67;34.69;65.51;;
50333;Laerm;36239;48.132;-1.210;2023-02-18T06:12:43;49.95;33.90;66.14;;
50333;Laerm;36239;48.132;-1.210;2023-02-18T06:15:09;41.02;33.90;57.15;;
50333;Laerm;36239;48.132;-1.210;2023-02-18T06:17:35;38.75;33.90;50.39;;
50333;Laerm;36239;48.132;-1.210;2023-02-18T06:20:01;39.56;33.90;57.24;;
50333;Laerm;36239;48.132;-1.210;2023-02-18T06:22:27;40.21;34.31;51.64;;
50333;Laerm;36239;48.132;-1.210;2023-02-18T06:24:53;43.96;35.04;59.27;;
50333;Laerm;36239;48.132;-1.210;2023-02-18T06:27:20;45.56;35.94;60.23;;
50333;Laerm;36239;48.132;-1.210;2023-02-18T06:29:46;46.24;34.31;60.87;;
50333;Laerm;36239;48.132;-1.210;2023-02-18T06:32:12;46.53;35.36;60.26;;
50333;Laerm;36239;48.132;-1.210;2023-02-18T06:34:38;45.91;35.36;58.63;;
50333;Laerm;36239;48.132;-1.210;2023-02-18T06:37:04;45.40;34.69;60.01;;
50333;Laerm;36239;48.132;-1.210;2023-02-18T06:39:29;45.52;35.04;61.12;;
50333;Laerm;36239;48.132;-1.210;2023-02-18T06:41:55;40.07;33.44;52.28;;
50333;Laerm;36239;48.132;-1.210;2023-02-18T06:44:21;39.66;33.90;59.92;;
50333;Laerm;36239;48.132;-1.210;2023-02-18T06:46:47;38.27;34.31;43.19;;
50333;Laerm;36239;48.132;-1.210;2023-02-18T06:49:13;39.14;34.69;51.47;;
50333;Laerm;36239;48.132;-1.210;2023-02-18T06:51:39;38.95;33.90;50.83;;
50333;Laerm;36239;48.132;-1.210;2023-02-18T06:54:05;38.72;34.31;48.12;;
50333;Laerm;36239;48.132;-1.210;2023-02-18T06:56:31;39.26;34.69;58.34;;
50333;Laerm;36239;48.132;-1.210;2023-02-18T06:58:58;40.21;34.69;60.03;;
50333;Laerm;36239;48.132;-1.210;2023-02-18T07:01:24;39.23;34.31;53.97;;
50333;Laerm;36239;48.132;-1.210;2023-02-18T07:03:50;45.83;35.04;64.19;;
50333;Laerm;36239;48.132;-1.210;2023-02-18T07:06:16;43.86;34.69;60.00;;
50333;Laerm;36239;48.132;-1.210;2023-02-18T07:08:42;47.43;33.90;66.03;;
50333;Laerm;36239;48.132;-1.210;2023-02-18T07:11:08;50.90;35.04;67.42;;
50333;Laerm;36239;48.132;-1.210;2023-02-18T07:13:34;40.87;36.69;57.91;;
50333;Laerm;36239;48.132;-1.210;2023-02-18T07:16:00;42.34;36.20;60.36;;
50333;Laerm;36239;48.132;-1.210;2023-02-18T07:18:26;44.62;34.69;62.10;;
50333;Laerm;36239;48.132;-1.210;2023-02-18T07:20:52;43.85;35.36;62.46;;
50333;Laerm;36239;48.132;-1.210;2023-02-18T07:23:18;52.25;35.36;73.56;;
50333;Laerm;36239;48.132;-1.210;2023-02-18T07:25:44;40.52;34.69;61.50;;
50333;Laerm;36239;48.132;-1.210;2023-02-18T07:28:10;43.55;35.66;67.18;;
50333;Laerm;36239;48.132;-1.210;2023-02-18T07:30:36;40.75;36.20;53.82;;
50333;Laerm;36239;48.132;-1.210;2023-02-18T07:33:02;42.05;35.66;60.35;;
50333;Laerm;36239;48.132;-1.210;2023-02-18T07:35:28;39.36;35.36;51.03;;
50333;Laerm;36239;48.132;-1.210;2023-02-18T07:37:54;44.46;35.36;64.21;;
50333;Laerm;36239;48.132;-1.210;2023-02-18T07:40:22;47.07;35.94;64.31;;
50333;Laerm;36239;48.132;-1.210;2023-02-18T07:42:48;46.60;36.69;63.39;;
50333;Laerm;36239;48.132;-1.210;2023-02-18T07:45:14;41.11;36.45;59.77;;
50333;Laerm;36239;48.132;-1.210;2023-02-18T07:47:41;40.18;35.04;53.28;;
50333;Laerm;36239;48.132;-1.210;2023-02-18T07:50:07;41.10;35.66;52.95;;
50333;Laerm;36239;48.132;-1.210;2023-02-18T07:52:34;41.78;36.20;56.06;;
50333;Laerm;36239;48.132;-1.210;2023-02-18T07:55:00;47.11;36.45;61.09;;
50333;Laerm;36239;48.132;-1.210;2023-02-18T07:57:26;40.64;35.66;54.17;;
50333;Laerm;36239;48.132;-1.210;2023-02-18T07:59:52;39.67;35.94;46.95;;
50333;Laerm;36239;48.132;-1.210;2023-02-18T08:02:22;40.93;34.69;56.72;;
50333;Laerm;36239;48.132;-1.210;2023-02-18T08:04:48;46.68;36.20;68.59;;
50333;Laerm;36239;48.132;-1.210;2023-02-18T08:07:15;39.68;35.94;51.02;;
50333;Laerm;36239;48.132;-1.210;2023-02-18T08:09:41;41.35;35.66;72.45;;
50333;Laerm;36239;48.132;-1.210;2023-02-18T08:12:07;47.58;36.69;64.34;;
50333;Laerm;36239;48.132;-1.210;2023-02-18T08:14:34;41.54;35.66;56.32;;
50333;Laerm;36239;48.132;-1.210;2023-02-18T08:17:00;43.85;35.36;57.44;;
50333;Laerm;36239;48.132;-1.210;2023-02-18T08:19:26;47.77;36.69;72.40;;
50333;Laerm;36239;48.132;-1.210;2023-02-18T08:21:52;48.09;36.69;72.04;;
50333;Laerm;36239;48.132;-1.210;2023-02-18T08:24:18;43.67;35.66;72.28;;
50333;Laerm;36239;48.132;-1.210;2023-02-18T08:26:44;41.56;35.66;65.24;;
50333;Laerm;36239;48.132;-1.210;2023-02-18T08:29:10;45.92;36.20;65.14;;
50333;Laerm;36239;48.132;-1.210;2023-02-18T08:31:36;41.76;36.45;57.98;;
50333;Laerm;36239;48.132;-1.210;2023-02-18T08:34:02;43.13;35.94;60.76;;
50333;Laerm;36239;48.132;-1.210;2023-02-18T08:36:28;43.72;35.66;65.21;;
50333;Laerm;36239;48.132;-1.210;2023-02-18T08:38:55;40.99;35.66;60.84;;
50333;Laerm;36239;48.132;-1.210;2023-02-18T08:41:22;39.81;35.94;49.97;;
50333;Laerm;36239;48.132;-1.210;2023-02-18T08:43:48;40.99;35.94;63.43;;
50333;Laerm;36239;48.132;-1.210;2023-02-18T08:46:14;39.92;35.66;53.59;;
50333;Laerm;36239;48.132;-1.210;2023-02-18T08:48:40;46.59;35.94;66.31;;
50333;Laerm;36239;48.132;-1.210;2023-02-18T08:51:13;49.02;35.66;80.58;;
50333;Laerm;36239;48.132;-1.210;2023-02-18T08:53:40;41.21;36.69;58.96;;
50333;Laerm;36239;48.132;-1.210;2023-02-18T08:56:06;40.37;36.45;55.82;;
50333;Laerm;36239;48.132;-1.210;2023-02-18T08:58:33;40.62;35.36;53.38;;
50333;Laerm;36239;48.132;-1.210;2023-02-18T09:01:03;43.02;34.31;57.26;;
50333;Laerm;36239;48.132;-1.210;2023-02-18T09:03:29;47.72;36.34;71.45;;
50333;Laerm;36239;48.132;-1.210;2023-02-18T09:05:55;43.68;35.36;74.31;;
50333;Laerm;36239;48.132;-1.210;2023-02-18T09:08:21;44.40;36.91;66.28;;
50333;Laerm;36239;48.132;-1.210;2023-02-18T09:10:47;49.84;36.45;72.62;;
50333;Laerm;36239;48.132;-1.210;2023-02-18T09:13:14;42.29;36.20;60.42;;
50333;Laerm;36239;48.132;-1.210;2023-02-18T09:15:40;41.48;36.69;63.17;;
50333;Laerm;36239;48.132;-1.210;2023-02-18T09:18:06;41.77;35.36;70.15;;
50333;Laerm;36239;48.132;-1.210;2023-02-18T09:20:32;41.84;35.66;59.94;;
50333;Laerm;36239;48.132;-1.210;2023-02-18T09:22:58;41.36;35.94;67.09;;
50333;Laerm;36239;48.132;-1.210;2023-02-18T09:25:25;48.86;36.69;78.92;;
50333;Laerm;36239;48.132;-1.210;2023-02-18T09:27:51;54.02;36.69;82.50;;
50333;Laerm;36239;48.132;-1.210;2023-02-18T09:30:17;45.08;36.91;61.15;;
50333;Laerm;36239;48.132;-1.210;2023-02-18T09:32:43;45.56;36.45;68.49;;
50333;Laerm;36239;48.132;-1.210;2023-02-18T09:35:09;39.82;35.66;52.11;;
50333;Laerm;36239;48.132;-1.210;2023-02-18T09:37:35;41.10;36.20;55.23;;
50333;Laerm;36239;48.132;-1.210;2023-02-18T09:40:01;45.69;35.94;64.87;;
50333;Laerm;36239;48.132;-1.210;2023-02-18T09:42:29;43.55;35.66;70.98;;
50333;Laerm;36239;48.132;-1.210;2023-02-18T09:44:58;46.32;35.94;64.99;;
50333;Laerm;36239;48.132;-1.210;2023-02-18T09:47:34;40.61;36.69;55.68;;
50333;Laerm;36239;48.132;-1.210;2023-02-18T09:50:10;52.49;36.91;71.10;;
50333;Laerm;36239;48.132;-1.210;2023-02-18T09:52:38;43.77;37.32;60.47;;
50333;Laerm;36239;48.132;-1.210;2023-02-18T09:55:38;46.76;37.12;73.08;;
50333;Laerm;36239;48.132;-1.210;2023-02-18T09:57:59;41.15;36.69;56.48;;
50333;Laerm;36239;48.132;-1.210;2023-02-18T10:00:34;45.65;37.12;73.74;;
50333;Laerm;36239;48.132;-1.210;2023-02-18T10:03:03;46.10;36.56;74.46;;
50333;Laerm;36239;48.132;-1.210;2023-02-18T10:05:30;41.68;37.12;62.74;;
50333;Laerm;36239;48.132;-1.210;2023-02-18T10:07:58;44.51;37.12;62.66;;
50333;Laerm;36239;48.132;-1.210;2023-02-18T10:13:03;43.74;35.94;74.69;;
50333;Laerm;36239;48.132;-1.210;2023-02-18T10:15:30;44.54;35.36;68.43;;
50333;Laerm;36239;48.132;-1.210;2023-02-18T10:17:56;44.54;35.66;70.37;;
50333;Laerm;36239;48.132;-1.210;2023-02-18T10:20:24;45.43;36.69;64.45;;
50333;Laerm;36239;48.132;-1.210;2023-02-18T10:22:51;42.27;36.91;63.50;;
50333;Laerm;36239;48.132;-1.210;2023-02-18T10:25:19;43.73;38.05;64.30;;
50333;Laerm;36239;48.132;-1.210;2023-02-18T10:27:45;45.01;36.20;68.87;;
50333;Laerm;36239;48.132;-1.210;2023-02-18T10:30:23;42.34;36.45;67.81;;
50333;Laerm;36239;48.132;-1.210;2023-02-18T10:32:59;49.71;36.20;80.95;;
50333;Laerm;36239;48.132;-1.210;2023-02-18T10:50:34;48.33;37.32;77.03;;
50333;Laerm;36239;48.132;-1.210;2023-02-18T10:53:07;54.74;36.20;83.81;;
50333;Laerm;36239;48.132;-1.210;2023-02-18T10:55:42;57.19;37.52;82.09;;
50333;Laerm;36239;48.132;-1.210;2023-02-18T11:00:50;46.97;36.91;70.29;;
50333;Laerm;36239;48.132;-1.210;2023-02-18T11:03:17;52.55;36.91;83.34;;
50333;Laerm;36239;48.132;-1.210;2023-02-18T11:06:05;47.07;35.94;76.46;;
50333;Laerm;36239;48.132;-1.210;2023-02-18T11:08:34;47.32;36.45;68.86;;
50333;Laerm;36239;48.132;-1.210;2023-02-18T11:11:08;41.54;36.91;56.74;;
50333;Laerm;36239;48.132;-1.210;2023-02-18T11:13:37;44.42;35.66;69.34;;
50333;Laerm;36239;48.132;-1.210;2023-02-18T11:16:05;41.24;36.20;60.92;;
50333;Laerm;36239;48.132;-1.210;2023-02-18T11:18:38;44.49;35.94;69.68;;
50333;Laerm;36239;48.132;-1.210;2023-02-18T11:21:28;45.23;35.94;74.44;;
50333;Laerm;36239;48.132;-1.210;2023-02-18T11:23:54;44.19;36.20;73.64;;
50333;Laerm;36239;48.132;-1.210;2023-02-18T11:26:31;46.42;37.88;77.30;;
50333;Laerm;36239;48.132;-1.210;2023-02-18T11:29:02;40.93;36.45;63.03;;
50333;Laerm;36239;48.132;-1.210;2023-02-18T11:31:34;57.61;37.32;84.45;;
50333;Laerm;36239;48.132;-1.210;2023-02-18T11:34:03;57.14;37.88;80.60;;
50333;Laerm;36239;48.132;-1.210;2023-02-18T11:36:30;49.91;36.20;68.85;;
50333;Laerm;36239;48.132;-1.210;2023-02-18T11:38:58;50.92;35.66;79.10;;
50333;Laerm;36239;48.132;-1.210;2023-02-18T11:41:35;47.64;37.12;77.23;;
50333;Laerm;36239;48.132;-1.210;2023-02-18T11:44:04;49.27;35.94;78.45;;
50333;Laerm;36239;48.132;-1.210;2023-02-18T11:46:30;60.24;35.94;92.66;;
50333;Laerm;36239;48.132;-1.210;2023-02-18T11:48:56;64.98;36.45;91.50;;
50333;Laerm;36239;48.132;-1.210;2023-02-18T11:51:35;50.67;37.12;84.79;;
50333;Laerm;36239;48.132;-1.210;2023-02-18T11:54:09;48.11;36.91;78.42;;
50333;Laerm;36239;48.132;-1.210;2023-02-18T11:56:53;56.44;36.91;71.60;;
50333;Laerm;36239;48.132;-1.210;2023-02-18T11:59:19;56.18;35.94;70.77;;
50333;Laerm;36239;48.132;-1.210;2023-02-18T12:01:46;47.46;36.45;67.02;;
50333;Laerm;36239;48.132;-1.210;2023-02-18T12:04:16;60.50;36.45;85.48;;
50333;Laerm;36239;48.132;-1.210;2023-02-18T12:06:48;55.55;36.45;72.02;;
50333;Laerm;36239;48.132;-1.210;2023-02-18T12:09:21;55.85;36.45;76.01;;
50333;Laerm;36239;48.132;-1.210;2023-02-18T12:11:49;52.23;35.94;64.30;;
50333;Laerm;36239;48.132;-1.210;2023-02-18T12:14:17;52.85;35.04;76.93;;
50333;Laerm;36239;48.132;-1.210;2023-02-18T12:19:36;62.46;36.20;91.35;;
50333;Laerm;36239;48.132;-1.210;2023-02-18T12:22:19;47.37;35.66;76.94;;
50333;Laerm;36239;48.132;-1.210;2023-02-18T12:25:00;47.15;35.04;79.33;;
50333;Laerm;36239;48.132;-1.210;2023-02-18T12:30:25;47.65;36.69;72.33;;
50333;Laerm;36239;48.132;-1.210;2023-02-18T12:40:41;47.33;35.36;74.26;;
50333;Laerm;36239;48.132;-1.210;2023-02-18T12:53:37;54.03;34.69;80.52;;
50333;Laerm;36239;48.132;-1.210;2023-02-18T13:01:16;48.23;36.20;73.92;;
50333;Laerm;36239;48.132;-1.210;2023-02-18T13:04:09;42.86;36.20;66.75;;
50333;Laerm;36239;48.132;-1.210;2023-02-18T13:12:02;47.17;36.91;75.94;;
50333;Laerm;36239;48.132;-1.210;2023-02-18T13:14:31;42.99;36.69;66.12;;
50333;Laerm;36239;48.132;-1.210;2023-02-18T13:16:59;46.13;36.91;73.52;;
50333;Laerm;36239;48.132;-1.210;2023-02-18T13:19:32;47.76;37.12;75.46;;
50333;Laerm;36239;48.132;-1.210;2023-02-18T13:22:02;49.23;36.91;66.87;;
50333;Laerm;36239;48.132;-1.210;2023-02-18T13:24:33;49.70;36.20;76.13;;
50333;Laerm;36239;48.132;-1.210;2023-02-18T13:27:03;40.48;35.36;58.61;;
50333;Laerm;36239;48.132;-1.210;2023-02-18T13:29:41;40.61;36.34;61.63;;
50333;Laerm;36239;48.132;-1.210;2023-02-18T13:34:55;39.59;35.04;53.74;;
50333;Laerm;36239;48.132;-1.210;2023-02-18T13:37:49;40.05;35.36;57.51;;
50333;Laerm;36239;48.132;-1.210;2023-02-18T13:40:24;40.07;35.94;57.51;;
50333;Laerm;36239;48.132;-1.210;2023-02-18T13:42:52;45.65;36.20;64.90;;
50333;Laerm;36239;48.132;-1.210;2023-02-18T13:45:37;46.37;35.94;73.19;;
50333;Laerm;36239;48.132;-1.210;2023-02-18T13:48:09;42.04;35.94;68.59;;
50333;Laerm;36239;48.132;-1.210;2023-02-18T13:50:46;41.43;35.94;68.09;;
50333;Laerm;36239;48.132;-1.210;2023-02-18T13:53:19;43.60;35.59;66.39;;
50333;Laerm;36239;48.132;-1.210;2023-02-18T13:55:55;46.82;36.45;61.82;;
50333;Laerm;36239;48.132;-1.210;2023-02-18T13:58:24;46.22;35.94;70.64;;
50333;Laerm;36239;48.132;-1.210;2023-02-18T14:01:04;47.33;36.45;74.14;;
50333;Laerm;36239;48.132;-1.210;2023-02-18T14:07:15;41.02;36.20;62.06;;
50333;Laerm;36239;48.132;-1.210;2023-02-18T14:09:47;40.90;35.94;62.05;;
50333;Laerm;36239;48.132;-1.210;2023-02-18T14:11:54;44.16;37.12;69.53;;
50333;Laerm;36239;48.132;-1.210;2023-02-18T14:19:37;46.15;36.20;70.61;;
50333;Laerm;36239;48.132;-1.210;2023-02-18T14:24:48;51.23;36.91;75.32;;
50333;Laerm;36239;48.132;-1.210;2023-02-18T14:27:20;48.76;37.32;74.60;;
50333;Laerm;36239;48.132;-1.210;2023-02-18T14:29:50;43.27;36.45;64.53;;
50333;Laerm;36239;48.132;-1.210;2023-02-18T14:32:16;41.62;36.69;61.84;;
50333;Laerm;36239;48.132;-1.210;2023-02-18T14:35:00;45.74;36.69;69.07;;
50333;Laerm;36239;48.132;-1.210;2023-02-18T14:45:04;52.21;35.94;80.74;;
50333;Laerm;36239;48.132;-1.210;2023-02-18T14:50:19;46.91;36.20;77.42;;
50333;Laerm;36239;48.132;-1.210;2023-02-18T14:52:47;43.57;36.98;71.81;;
50333;Laerm;36239;48.132;-1.210;2023-02-18T14:55:19;46.76;36.20;75.39;;
50333;Laerm;36239;48.132;-1.210;2023-02-18T14:57:50;43.95;37.12;64.67;;
50333;Laerm;36239;48.132;-1.210;2023-02-18T15:00:20;42.84;35.66;64.13;;
50333;Laerm;36239;48.132;-1.210;2023-02-18T15:02:47;54.04;37.32;85.02;;
50333;Laerm;36239;48.132;-1.210;2023-02-18T15:05:15;45.61;37.88;70.72;;
50333;Laerm;36239;48.132;-1.210;2023-02-18T15:07:53;58.70;38.52;86.83;;
50333;Laerm;36239;48.132;-1.210;2023-02-18T15:10:19;45.82;38.21;63.55;;
50333;Laerm;36239;48.132;-1.210;2023-02-18T15:12:45;49.72;38.81;78.58;;
50333;Laerm;36239;48.132;-1.210;2023-02-18T15:15:12;53.86;39.81;83.59;;
50333;Laerm;36239;48.132;-1.210;2023-02-18T15:17:43;46.41;40.23;74.38;;
50333;Laerm;36239;48.132;-1.210;2023-02-18T15:20:10;44.53;37.12;64.30;;
50333;Laerm;36239;48.132;-1.210;2023-02-18T15:22:37;45.76;37.70;68.96;;
50333;Laerm;36239;48.132;-1.210;2023-02-18T15:25:03;47.77;38.81;73.42;;
50333;Laerm;36239;48.132;-1.210;2023-02-18T15:27:30;43.22;37.52;64.68;;
50333;Laerm;36239;48.132;-1.210;2023-02-18T15:29:58;41.47;36.45;55.93;;
50333;Laerm;36239;48.132;-1.210;2023-02-18T15:32:25;41.91;36.91;63.27;;